createdAt,value
2022-10-23T00:00:31.725Z,11.57
2022-10-23T00:05:33.786Z,11.45
2022-10-23T00:10:35.580Z,11.40
2022-10-23T00:15:37.325Z,11.41
2022-10-23T00:20:38.774Z,11.38
2022-10-23T00:25:40.198Z,11.30
2022-10-23T00:30:41.892Z,11.15
2022-10-23T00:35:43.873Z,11.31
2022-10-23T00:40:47.065Z,11.19
2022-10-23T00:45:48.658Z,10.91
2022-10-23T00:50:50.476Z,10.95
2022-10-23T00:55:54.806Z,10.83
2022-10-23T01:00:57.149Z,10.67
2022-10-23T01:06:23.192Z,10.61
2022-10-23T01:11:38.930Z,10.55
2022-10-23T01:17:00.281Z,10.53
2022-10-23T01:22:04.511Z,10.61
2022-10-23T01:27:27.937Z,10.49
2022-10-23T01:32:44.068Z,10.34
2022-10-23T01:37:51.160Z,10.35
2022-10-23T01:42:58.170Z,10.30
2022-10-23T01:48:02.618Z,10.25
2022-10-23T01:53:04.816Z,10.15
2022-10-23T01:58:08.468Z,9.99
2022-10-23T02:03:13.148Z,10.15
2022-10-23T02:08:14.921Z,10.08
2022-10-23T02:13:29.165Z,10.04
2022-10-23T02:18:44.190Z,10.01
2022-10-23T02:24:01.143Z,9.97
2022-10-23T02:29:38.900Z,9.83
2022-10-23T02:34:40.738Z,9.74
2022-10-23T02:39:42.274Z,9.72
2022-10-23T02:44:56.221Z,9.66
2022-10-23T02:50:23.761Z,9.64
2022-10-23T02:56:00.760Z,9.73
2022-10-23T03:01:19.960Z,9.58
2022-10-23T03:06:22.783Z,9.63
2022-10-23T03:11:24.262Z,9.56
2022-10-23T03:16:25.772Z,9.50
2022-10-23T03:21:27.330Z,9.51
2022-10-23T03:26:29.012Z,9.43
2022-10-23T03:31:30.430Z,9.37
2022-10-23T03:36:31.963Z,9.36
2022-10-23T03:41:33.441Z,9.39
2022-10-23T03:46:34.853Z,9.35
2022-10-23T03:51:36.515Z,9.30
2022-10-23T03:56:37.950Z,9.28
2022-10-23T04:01:39.475Z,9.21
2022-10-23T04:06:41.233Z,9.14
2022-10-23T04:11:42.901Z,9.21
2022-10-23T04:16:44.356Z,9.21
2022-10-23T04:21:45.995Z,9.22
2022-10-23T04:26:47.533Z,9.18
2022-10-23T04:31:49.274Z,9.21
2022-10-23T04:36:50.973Z,9.18
2022-10-23T04:41:53.036Z,9.08
2022-10-23T04:46:54.517Z,9.08
2022-10-23T04:51:55.981Z,9.00
2022-10-23T04:56:57.513Z,8.98
2022-10-23T05:02:02.841Z,8.99
2022-10-23T05:07:04.481Z,9.01
2022-10-23T05:12:06.005Z,8.92
2022-10-23T05:17:12.984Z,8.92
2022-10-23T05:22:15.381Z,8.90
2022-10-23T05:27:16.968Z,8.90
2022-10-23T05:32:18.618Z,8.92
2022-10-23T05:37:20.220Z,8.85
2022-10-23T05:42:21.645Z,8.78
2022-10-23T05:47:23.072Z,8.74
2022-10-23T05:52:24.634Z,8.71
2022-10-23T05:57:26.213Z,8.67
2022-10-23T06:02:27.929Z,8.75
2022-10-23T06:07:35.714Z,8.69
2022-10-23T06:12:37.539Z,8.77
2022-10-23T06:17:38.983Z,8.73
2022-10-23T06:22:40.670Z,8.72
2022-10-23T06:27:42.578Z,8.80
2022-10-23T06:32:44.411Z,8.63
2022-10-23T06:37:46.041Z,8.59
2022-10-23T06:42:47.504Z,8.55
2022-10-23T06:47:52.270Z,8.69
2022-10-23T06:52:54.240Z,8.69
2022-10-23T06:57:58.919Z,8.65
2022-10-23T07:03:00.464Z,8.74
2022-10-23T07:08:04.428Z,8.92
2022-10-23T07:13:05.907Z,9.00
2022-10-23T07:18:14.202Z,9.14
2022-10-23T07:23:16.298Z,9.20
2022-10-23T07:28:17.726Z,9.28
2022-10-23T07:33:19.132Z,9.41
2022-10-23T07:38:20.654Z,9.54
2022-10-23T07:43:22.186Z,9.70
2022-10-23T07:48:24.651Z,9.78
2022-10-23T07:53:26.562Z,9.80
2022-10-23T07:58:29.401Z,9.92
2022-10-23T08:03:34.873Z,10.17
2022-10-23T08:08:36.736Z,10.10
2022-10-23T08:13:38.191Z,10.39
2022-10-23T08:18:41.306Z,10.70
2022-10-23T08:23:43.635Z,10.89
2022-10-23T08:28:45.106Z,11.01
2022-10-23T08:38:57.966Z,11.39
2022-10-23T08:44:09.785Z,11.46
2022-10-23T08:49:42.171Z,11.59
2022-10-23T08:54:56.992Z,11.74
2022-10-23T09:00:03.335Z,11.83
2022-10-23T09:05:13.631Z,11.84
2022-10-23T09:10:31.085Z,12.03
2022-10-23T09:15:42.221Z,12.06
2022-10-23T09:20:46.180Z,12.17
2022-10-23T09:25:50.870Z,12.37
2022-10-23T09:30:53.187Z,12.54
2022-10-23T09:36:06.782Z,12.63
2022-10-23T09:41:17.921Z,12.65
2022-10-23T09:46:19.397Z,12.73
2022-10-23T09:51:21.634Z,12.90
2022-10-23T09:56:24.693Z,12.89
2022-10-23T10:01:32.683Z,13.06
2022-10-23T10:06:34.292Z,13.31
2022-10-23T10:11:51.648Z,13.49
2022-10-23T10:17:05.460Z,13.65
2022-10-23T10:22:28.683Z,14.08
2022-10-23T10:27:46.340Z,14.12
2022-10-23T10:33:00.092Z,14.17
2022-10-23T10:38:09.767Z,14.31
2022-10-23T10:43:26.090Z,14.33
2022-10-23T10:48:51.996Z,14.44
2022-10-23T10:54:27.431Z,14.35
2022-10-23T10:59:38.154Z,14.40
2022-10-23T11:04:45.682Z,14.82
2022-10-23T11:09:47.729Z,15.34
2022-10-23T11:14:50.302Z,15.68
2022-10-23T11:20:39.978Z,15.96
2022-10-23T11:26:06.428Z,16.27
2022-10-23T11:31:12.283Z,16.64
2022-10-23T11:36:39.141Z,16.83
2022-10-23T11:41:49.232Z,17.08
2022-10-23T11:47:05.467Z,18.04
2022-10-23T11:52:23.240Z,18.72
2022-10-23T11:57:24.783Z,19.34
2022-10-23T12:02:42.978Z,19.52
2022-10-23T12:07:46.656Z,18.93
2022-10-23T12:13:00.106Z,18.83
2022-10-23T12:18:15.353Z,19.40
2022-10-23T12:23:53.699Z,19.48
2022-10-23T12:29:19.566Z,20.04
2022-10-23T12:34:50.852Z,19.79
2022-10-23T12:39:55.128Z,20.39
2022-10-23T12:45:18.167Z,20.15
2022-10-23T12:50:25.769Z,19.30
2022-10-23T12:55:47.777Z,18.67
2022-10-23T13:00:55.415Z,18.41
2022-10-23T13:05:58.779Z,18.46
2022-10-23T13:11:00.885Z,18.73
2022-10-23T13:16:14.028Z,18.63
2022-10-23T13:21:23.066Z,18.32
2022-10-23T13:26:45.351Z,17.65
2022-10-23T13:31:47.428Z,17.16
2022-10-23T13:36:56.187Z,16.69
2022-10-23T13:42:09.919Z,16.37
2022-10-23T13:47:13.103Z,16.04
2022-10-23T13:52:20.015Z,15.84
2022-10-23T13:57:21.552Z,15.69
2022-10-23T14:02:24.327Z,15.55
2022-10-23T14:07:25.813Z,15.37
2022-10-23T14:12:39.169Z,15.24
2022-10-23T14:17:40.598Z,15.17
2022-10-23T14:22:42.377Z,15.11
2022-10-23T14:27:44.226Z,15.11
2022-10-23T14:32:47.119Z,15.04
2022-10-23T14:37:48.885Z,14.99
2022-10-23T14:42:50.327Z,14.90
2022-10-23T14:47:51.805Z,14.90
2022-10-23T14:52:53.338Z,14.81
2022-10-23T14:57:55.984Z,14.77
2022-10-23T15:02:57.400Z,14.71
2022-10-23T15:07:58.988Z,14.60
2022-10-23T15:13:00.436Z,14.55
2022-10-23T15:18:01.871Z,14.52
2022-10-23T15:23:03.782Z,14.44
2022-10-23T15:28:05.181Z,14.31
2022-10-23T15:33:06.686Z,14.23
2022-10-23T15:38:08.149Z,14.19
2022-10-23T15:43:13.046Z,14.15
2022-10-23T15:48:14.958Z,14.13
2022-10-23T15:53:16.405Z,14.00
2022-10-23T15:58:17.839Z,13.94
2022-10-23T16:03:19.307Z,13.92
2022-10-23T16:08:20.813Z,13.93
2022-10-23T16:13:22.257Z,13.90
2022-10-23T16:18:23.919Z,13.79
2022-10-23T16:23:28.083Z,13.84
2022-10-23T16:28:29.587Z,13.82
2022-10-23T16:33:31.001Z,13.83
2022-10-23T16:38:32.636Z,13.78
2022-10-23T16:43:34.089Z,13.71
2022-10-23T16:48:36.317Z,13.69
2022-10-23T16:53:38.021Z,13.63
2022-10-23T16:58:42.315Z,13.58
2022-10-23T17:03:47.744Z,13.53
2022-10-23T17:08:49.957Z,13.56
2022-10-23T17:13:58.478Z,13.55
2022-10-23T17:19:01.782Z,13.47
2022-10-23T17:24:03.832Z,13.42
2022-10-23T17:29:07.298Z,13.35
2022-10-23T17:34:11.638Z,13.36
2022-10-23T17:39:13.799Z,13.33
2022-10-23T17:44:15.704Z,13.36
2022-10-23T17:49:17.282Z,13.33
2022-10-23T17:54:18.884Z,13.29
2022-10-23T17:59:21.869Z,13.23
2022-10-23T18:04:23.427Z,13.19
2022-10-23T18:09:25.060Z,13.10
2022-10-23T18:14:29.441Z,13.14
2022-10-23T18:19:31.222Z,13.19
2022-10-23T18:24:32.903Z,13.09
2022-10-23T18:29:34.539Z,13.15
2022-10-23T18:34:36.258Z,13.18
2022-10-23T18:39:38.878Z,13.18
2022-10-23T18:44:41.757Z,13.14
2022-10-23T18:49:44.408Z,13.14
2022-10-23T18:54:45.850Z,13.16
2022-10-23T18:59:47.399Z,13.13
2022-10-23T19:04:49.073Z,13.06
2022-10-23T19:09:51.015Z,13.13
2022-10-23T19:14:54.805Z,13.10
2022-10-23T19:20:07.184Z,13.04
2022-10-23T19:25:19.470Z,13.01
2022-10-23T19:30:22.804Z,12.98
2022-10-23T19:35:24.519Z,13.00
2022-10-23T19:40:25.979Z,13.03
2022-10-23T19:45:27.483Z,13.08
2022-10-23T19:50:29.051Z,13.05
2022-10-23T19:55:30.502Z,13.06
2022-10-23T20:00:31.967Z,13.08
2022-10-23T20:05:33.405Z,13.12
2022-10-23T20:10:40.715Z,13.25
2022-10-23T20:15:42.160Z,13.37
2022-10-23T20:20:43.661Z,13.48
2022-10-23T20:25:45.121Z,13.57
2022-10-23T20:30:46.597Z,13.61
2022-10-23T20:35:48.129Z,13.64
2022-10-23T20:40:49.624Z,13.70
2022-10-23T20:45:51.072Z,13.64
2022-10-23T20:50:52.504Z,13.60
2022-10-23T20:55:53.931Z,13.55
2022-10-23T21:00:57.243Z,13.49
2022-10-23T21:06:07.220Z,13.39
2022-10-23T21:11:13.775Z,13.35
2022-10-23T21:16:28.674Z,13.31
2022-10-23T21:21:33.665Z,13.26
2022-10-23T21:26:35.528Z,13.31
2022-10-23T21:31:37.149Z,13.31
2022-10-23T21:36:53.850Z,13.42
2022-10-23T21:42:00.020Z,13.42
2022-10-23T21:47:01.429Z,13.36
2022-10-23T21:52:04.030Z,13.34
2022-10-23T21:57:12.104Z,13.35
2022-10-23T22:02:13.643Z,13.49
2022-10-23T22:07:15.309Z,13.61
2022-10-23T22:12:16.808Z,13.71
2022-10-23T22:17:18.265Z,13.88
2022-10-23T22:22:19.686Z,13.85
2022-10-23T22:27:21.093Z,13.83
2022-10-23T22:32:22.518Z,13.86
2022-10-23T22:37:24.025Z,13.85
2022-10-23T22:42:25.536Z,13.88
2022-10-23T22:47:29.241Z,13.89
2022-10-23T22:52:30.730Z,13.83
2022-10-23T22:57:32.182Z,13.83
2022-10-23T23:02:33.632Z,13.81
2022-10-23T23:07:35.042Z,13.84
2022-10-23T23:12:37.832Z,13.74
2022-10-23T23:17:39.240Z,13.78
2022-10-23T23:22:40.685Z,13.68
2022-10-23T23:27:42.276Z,13.63
2022-10-23T23:32:47.077Z,13.59
2022-10-23T23:37:48.670Z,13.53
2022-10-23T23:42:50.152Z,13.46
2022-10-23T23:47:51.643Z,13.44
2022-10-23T23:52:53.185Z,13.41
2022-10-23T23:57:54.924Z,13.48
